Time;durP1;ratioP1;P1;durP2;ratioP2;P2;SDS_P1;SDS_P2;PMS_P1;PMS_P2;Temp;Humidity;BMP_temperature;BMP_pressure;BME280_temperature;BME280_humidity;BME280_pressure;Samples;Min_cycle;Max_cycle;Signal;HPM_P1;HPM_P2
2022/07/17 00:02:13;;;;;;;4.85;4.28;;;;;;;20.61;74.85;96804.00;5076336;28;20248;-82
2022/07/17 00:04:40;;;;;;;8.20;4.65;;;;;;;20.40;76.39;96800.56;5039255;28;20286;-82
2022/07/17 00:07:08;;;;;;;6.57;4.50;;;;;;;20.23;77.68;96792.66;5046089;28;20256;-82
2022/07/17 00:09:35;;;;;;;4.78;4.28;;;;;;;20.19;78.52;96798.97;5041783;28;20206;-83
2022/07/17 00:12:02;;;;;;;5.18;4.10;;;;;;;20.23;78.70;96795.41;5043636;28;20260;-82
2022/07/17 00:14:29;;;;;;;5.43;4.93;;;;;;;20.29;78.42;96801.66;5042742;28;20206;-82
2022/07/17 00:16:57;;;;;;;5.32;4.00;;;;;;;20.27;78.57;96799.19;5072439;28;20325;-83
2022/07/17 00:19:25;;;;;;;5.28;4.80;;;;;;;20.32;78.60;96804.69;5043656;28;20301;-82
2022/07/17 00:21:52;;;;;;;4.85;3.80;;;;;;;20.31;78.24;96799.47;5047705;28;20324;-82
2022/07/17 00:24:21;;;;;;;5.03;4.18;;;;;;;20.25;76.85;96790.41;5040412;28;20231;-83
2022/07/17 00:26:48;;;;;;;5.97;4.40;;;;;;;20.28;76.43;96794.53;5028681;28;20298;-83
2022/07/17 00:29:15;;;;;;;4.63;4.18;;;;;;;20.29;77.17;96790.69;5065976;28;20230;-83
2022/07/17 00:31:42;;;;;;;4.53;4.13;;;;;;;20.29;76.11;96807.97;5040439;28;20291;-82
2022/07/17 00:34:11;;;;;;;4.72;3.97;;;;;;;20.19;76.49;96809.94;5077739;28;20284;-82
2022/07/17 00:36:38;;;;;;;6.20;3.95;;;;;;;20.18;76.67;96811.84;5077536;28;20202;-83
2022/07/17 00:39:05;;;;;;;5.55;4.07;;;;;;;20.19;76.77;96798.97;5043841;28;20210;-82
2022/07/17 00:41:34;;;;;;;5.90;4.63;;;;;;;20.07;77.01;96810.25;5044862;28;20288;-82
2022/07/17 00:44:05;;;;;;;4.85;4.18;;;;;;;19.95;77.42;96807.00;5044532;28;20232;-82
2022/07/17 00:46:32;;;;;;;6.18;4.22;;;;;;;19.91;77.96;96817.69;5044693;28;20226;-82
2022/07/17 00:48:59;;;;;;;4.32;4.00;;;;;;;19.93;79.80;96810.00;5042238;28;20203;-82
2022/07/17 00:51:26;;;;;;;4.90;4.40;;;;;;;19.96;79.72;96814.94;5044731;28;20221;-82
2022/07/17 00:53:53;;;;;;;5.03;4.18;;;;;;;20.01;79.97;96811.34;5037682;28;20202;-82
2022/07/17 00:56:24;;;;;;;5.95;4.35;;;;;;;19.96;81.39;96808.66;5034228;28;20237;-82
2022/07/17 00:58:53;;;;;;;5.45;4.90;;;;;;;19.79;81.25;96810.88;5032467;28;20241;-82
2022/07/17 01:01:20;;;;;;;4.75;4.28;;;;;;;19.76;82.26;96814.16;5045781;28;20260;-82
2022/07/17 01:03:47;;;;;;;7.20;4.60;;;;;;;19.79;82.63;96813.63;5043385;28;20222;-82
2022/07/17 01:06:14;;;;;;;5.13;4.35;;;;;;;19.72;82.53;96821.31;5074268;28;20198;-82
2022/07/17 01:08:42;;;;;;;5.05;4.55;;;;;;;19.70;83.46;96820.75;5043445;28;20207;-82
2022/07/17 01:11:10;;;;;;;5.57;4.25;;;;;;;19.75;83.70;96820.75;5043952;28;20202;-82
2022/07/17 01:13:37;;;;;;;6.13;4.93;;;;;;;19.79;82.46;96827.31;5045722;28;20237;-83
2022/07/17 01:16:08;;;;;;;5.00;4.50;;;;;;;19.78;82.96;96825.69;5048192;28;20208;-82
2022/07/17 01:18:35;;;;;;;5.00;4.47;;;;;;;19.74;83.42;96827.31;5045440;28;20275;-82
2022/07/17 01:21:07;;;;;;;4.72;4.32;;;;;;;19.77;83.44;96832.25;5044249;28;20210;-82
2022/07/17 01:23:35;;;;;;;6.50;4.40;;;;;;;19.81;83.82;96839.66;5045349;28;20257;-82
2022/07/17 01:26:02;;;;;;;7.13;4.30;;;;;;;19.61;84.11;96829.53;5039185;28;20339;-82
2022/07/17 01:28:30;;;;;;;6.05;4.50;;;;;;;19.51;85.48;96836.94;5079993;28;20269;-83
2022/07/17 01:30:57;;;;;;;6.00;4.47;;;;;;;19.48;85.05;96837.50;5049140;28;20209;-82
2022/07/17 01:33:24;;;;;;;6.07;4.63;;;;;;;19.47;85.00;96842.16;5048569;28;20202;-82
2022/07/17 01:35:52;;;;;;;4.63;4.05;;;;;;;19.55;84.79;96840.78;5049748;28;20213;-82
2022/07/17 01:38:20;;;;;;;5.53;4.40;;;;;;;19.49;84.19;96837.22;5049567;28;20213;-82
2022/07/17 01:40:47;;;;;;;4.90;4.50;;;;;;;19.49;84.47;96836.38;5047145;28;20237;-82
2022/07/17 01:43:14;;;;;;;6.75;4.90;;;;;;;19.33;83.26;96834.72;5050655;28;20293;-83
2022/07/17 01:45:41;;;;;;;5.22;4.50;;;;;;;19.07;85.60;96839.38;5047379;28;20218;-82
2022/07/17 01:48:08;;;;;;;5.50;5.00;;;;;;;18.85;87.56;96843.19;5041664;28;20317;-82
2022/07/17 01:50:36;;;;;;;5.63;4.93;;;;;;;18.67;89.05;96840.94;5036324;28;20206;-82
2022/07/17 01:53:03;;;;;;;6.27;5.37;;;;;;;18.59;88.94;96846.94;5052135;28;20194;-82
2022/07/17 01:55:32;;;;;;;5.93;5.33;;;;;;;18.56;89.51;96839.22;5046702;28;20341;-82
2022/07/17 01:57:59;;;;;;;5.40;4.90;;;;;;;18.58;88.91;96845.28;5047491;28;20195;-82
2022/07/17 02:00:26;;;;;;;6.03;5.00;;;;;;;18.46;89.49;96844.66;5046228;28;20238;-82
2022/07/17 02:02:53;;;;;;;6.87;5.30;;;;;;;18.38;89.87;96842.44;5048562;28;20194;-82
2022/07/17 02:05:20;;;;;;;6.03;5.30;;;;;;;18.29;91.16;96847.59;5047177;28;20229;-82
2022/07/17 02:07:48;;;;;;;6.07;5.30;;;;;;;18.17;92.34;96838.00;5034378;28;20202;-82
2022/07/17 02:10:16;;;;;;;7.27;5.80;;;;;;;18.12;92.56;96845.06;5071297;28;20264;-82
2022/07/17 02:12:45;;;;;;;7.57;4.97;;;;;;;17.98;92.86;96829.41;5046771;28;20194;-82
2022/07/17 02:15:13;;;;;;;6.70;5.30;;;;;;;17.99;93.75;96836.53;5044765;28;20230;-82
2022/07/17 02:17:41;;;;;;;7.13;5.07;;;;;;;18.03;93.69;96834.94;5037209;28;20218;-82
2022/07/17 02:20:11;;;;;;;5.80;4.90;;;;;;;17.98;94.06;96830.25;5059253;28;21626;-82
2022/07/17 02:22:38;;;;;;;5.80;5.20;;;;;;;17.97;94.22;96825.88;5049298;28;20202;-82
2022/07/17 02:25:06;;;;;;;5.43;4.93;;;;;;;18.04;93.97;96829.19;5049360;28;20229;-82
2022/07/17 02:27:34;;;;;;;9.10;5.43;;;;;;;18.04;93.31;96831.91;5043393;28;20205;-82
2022/07/17 02:30:05;;;;;;;6.90;4.90;;;;;;;18.01;93.51;96826.19;5038669;28;20298;-82
2022/07/17 02:32:32;;;;;;;7.40;5.40;;;;;;;17.97;93.85;96836.78;5052070;28;20298;-82
2022/07/17 02:34:59;;;;;;;6.30;5.13;;;;;;;17.95;94.25;96832.72;5047282;28;20216;-82
2022/07/17 02:37:26;;;;;;;5.53;5.03;;;;;;;17.95;94.36;96833.50;5050486;28;20392;-82
2022/07/17 02:39:53;;;;;;;5.90;5.30;;;;;;;17.93;94.37;96829.41;5049622;28;20217;-82
2022/07/17 02:42:22;;;;;;;5.73;5.13;;;;;;;17.98;93.86;96822.06;5064318;28;20273;-82
2022/07/17 02:44:49;;;;;;;5.97;5.17;;;;;;;18.07;93.53;96825.09;5047472;28;20233;-82
2022/07/17 02:47:23;;;;;;;6.77;5.40;;;;;;;18.18;91.93;96820.50;5043736;28;20203;-82
2022/07/17 02:49:50;;;;;;;5.50;5.00;;;;;;;18.19;91.64;96828.44;5041963;28;20205;-82
2022/07/17 02:52:18;;;;;;;6.47;5.40;;;;;;;17.81;94.08;96820.59;5045765;28;20214;-82
2022/07/17 02:54:45;;;;;;;6.87;5.37;;;;;;;17.71;95.34;96811.25;5042057;28;20289;-82
2022/07/17 02:57:12;;;;;;;6.60;5.53;;;;;;;17.75;95.41;96815.09;5043273;28;20234;-82
2022/07/17 02:59:39;;;;;;;6.10;5.33;;;;;;;17.87;94.73;96820.34;5046484;28;20221;-82
2022/07/17 03:02:06;;;;;;;6.47;5.30;;;;;;;17.97;93.37;96814.13;5047223;28;20206;-82
2022/07/17 03:04:35;;;;;;;7.27;5.30;;;;;;;18.01;92.67;96815.25;5049145;28;20222;-82
2022/07/17 03:07:02;;;;;;;9.07;5.80;;;;;;;18.03;93.34;96808.41;5049202;28;20268;-82
2022/07/17 03:09:29;;;;;;;6.03;5.00;;;;;;;18.08;93.14;96813.91;5040619;28;20217;-82
2022/07/17 03:11:56;;;;;;;8.07;5.57;;;;;;;18.12;92.58;96801.34;5046930;28;20289;-83
2022/07/17 03:14:23;;;;;;;6.10;5.33;;;;;;;18.19;91.88;96801.13;5045868;28;20199;-82
2022/07/17 03:16:50;;;;;;;6.23;5.30;;;;;;;18.22;91.41;96795.09;5038163;28;20209;-82
2022/07/17 03:19:18;;;;;;;8.43;5.27;;;;;;;18.25;91.06;96793.75;5046041;28;20194;-82
2022/07/17 03:21:47;;;;;;;8.77;5.57;;;;;;;18.29;90.49;96806.59;5039968;28;20207;-83
2022/07/17 03:24:14;;;;;;;8.73;6.10;;;;;;;18.10;90.65;96792.59;5041514;28;20252;-83
2022/07/17 03:26:41;;;;;;;5.77;4.97;;;;;;;18.05;91.58;96792.56;5044120;28;20206;-82
2022/07/17 03:29:08;;;;;;;6.93;5.53;;;;;;;18.15;91.27;96789.88;5080347;28;20230;-83
2022/07/17 03:31:35;;;;;;;6.00;5.40;;;;;;;18.20;91.42;96797.28;5044601;28;20190;-82
2022/07/17 03:34:02;;;;;;;7.07;6.07;;;;;;;18.21;91.50;96803.56;5040648;28;20240;-82
2022/07/17 03:36:29;;;;;;;7.00;6.30;;;;;;;18.18;91.08;96798.66;5043879;28;20207;-82
2022/07/17 03:38:58;;;;;;;9.93;6.23;;;;;;;18.22;92.05;96806.03;5075013;28;20217;-82
2022/07/17 03:41:25;;;;;;;5.90;5.40;;;;;;;18.31;90.78;96798.13;5046434;28;20213;-82
2022/07/17 03:43:53;;;;;;;7.77;5.07;;;;;;;18.37;89.50;96808.00;5046923;28;20264;-82
2022/07/17 03:46:21;;;;;;;5.73;5.17;;;;;;;18.36;89.58;96800.91;5037262;28;20232;-83
2022/07/17 03:48:49;;;;;;;5.97;5.20;;;;;;;18.30;91.33;96801.94;5031477;28;20210;-82
2022/07/17 03:51:16;;;;;;;5.90;4.70;;;;;;;18.33;91.31;96790.50;5035561;28;20207;-82
2022/07/17 03:53:43;;;;;;;5.87;4.93;;;;;;;18.33;91.29;96796.78;5036328;28;20207;-83
2022/07/17 03:56:12;;;;;;;5.50;5.00;;;;;;;18.35;91.21;96793.78;5045168;28;20222;-83
2022/07/17 03:58:39;;;;;;;5.60;5.03;;;;;;;18.39;91.67;96789.41;5046980;28;20198;-82
2022/07/17 04:01:06;;;;;;;5.97;5.30;;;;;;;18.20;91.42;96786.38;5049215;28;20208;-83
2022/07/17 04:03:33;;;;;;;5.70;5.13;;;;;;;18.19;92.44;96792.09;5039660;28;20202;-82
2022/07/17 04:06:00;;;;;;;6.10;5.07;;;;;;;18.22;92.25;96797.00;5046377;28;20242;-83
2022/07/17 04:08:27;;;;;;;6.07;5.53;;;;;;;18.21;92.15;96796.19;5045046;28;20329;-82
2022/07/17 04:10:55;;;;;;;6.23;5.63;;;;;;;18.23;92.26;96802.22;5045617;28;20201;-82
2022/07/17 04:13:23;;;;;;;6.13;5.53;;;;;;;18.14;93.00;96806.53;5035383;28;20217;-82
2022/07/17 04:15:52;;;;;;;5.97;5.37;;;;;;;18.09;93.52;96799.16;5043684;28;20264;-82
2022/07/17 04:18:20;;;;;;;6.57;5.80;;;;;;;18.11;93.91;96804.38;5045771;28;20206;-83
2022/07/17 04:20:47;;;;;;;6.20;5.37;;;;;;;18.08;93.79;96797.50;5045660;28;20226;-82
2022/07/17 04:23:15;;;;;;;9.17;5.70;;;;;;;18.07;94.25;96803.25;5074738;28;20229;-83
2022/07/17 04:25:43;;;;;;;6.43;5.67;;;;;;;18.13;94.70;96802.16;5046860;28;20275;-83
2022/07/17 04:28:10;;;;;;;5.87;5.30;;;;;;;18.20;94.26;96807.41;5041227;28;20236;-82
2022/07/17 04:30:39;;;;;;;7.27;5.73;;;;;;;18.23;93.43;96794.00;5043236;28;20211;-83
2022/07/17 04:33:06;;;;;;;6.37;5.77;;;;;;;18.14;94.13;96796.44;5041949;28;20217;-82
2022/07/17 04:35:34;;;;;;;6.33;5.40;;;;;;;18.20;94.39;96793.75;5046955;28;20205;-82
2022/07/17 04:38:01;;;;;;;8.23;5.63;;;;;;;18.22;94.63;96803.28;5046422;28;20209;-82
2022/07/17 04:40:29;;;;;;;7.90;5.73;;;;;;;18.22;95.06;96799.72;5046542;28;20206;-82
2022/07/17 04:42:56;;;;;;;6.13;5.23;;;;;;;18.17;95.48;96807.94;5036872;28;20248;-82
2022/07/17 04:45:23;;;;;;;6.93;6.13;;;;;;;18.04;95.26;96801.84;5074768;28;20260;-82
2022/07/17 04:47:52;;;;;;;7.90;6.00;;;;;;;17.94;95.31;96801.84;5047014;28;20209;-82
2022/07/17 04:50:19;;;;;;;7.60;5.67;;;;;;;17.94;96.37;96811.94;5079476;28;20211;-82
2022/07/17 04:52:46;;;;;;;9.30;8.37;;;;;;;18.01;96.13;96810.59;5042321;28;20302;-82
2022/07/17 04:55:13;;;;;;;14.00;12.60;;;;;;;17.94;97.45;96810.03;5046784;28;20264;-82
2022/07/17 04:57:41;;;;;;;22.97;19.13;;;;;;;17.92;97.78;96801.25;5045890;28;20225;-83
2022/07/17 05:00:11;;;;;;;45.53;40.83;;;;;;;18.02;97.07;96812.25;5050348;28;20300;-82
2022/07/17 05:02:38;;;;;;;46.63;41.73;;;;;;;18.05;97.15;96813.59;5047760;28;20268;-82
2022/07/17 05:05:07;;;;;;;26.13;23.40;;;;;;;18.05;96.83;96813.59;5036815;28;20246;-82
2022/07/17 05:07:34;;;;;;;15.40;13.90;;;;;;;18.07;97.15;96808.72;5047786;28;20202;-82
2022/07/17 05:10:01;;;;;;;13.87;12.00;;;;;;;18.10;97.34;96819.94;5045365;28;20213;-82
2022/07/17 05:12:28;;;;;;;8.47;7.67;;;;;;;18.13;96.90;96819.38;5049480;28;20216;-82
2022/07/17 05:14:55;;;;;;;6.83;6.13;;;;;;;18.09;96.96;96817.47;5083719;28;20293;-82
2022/07/17 05:17:22;;;;;;;7.40;6.60;;;;;;;18.07;97.67;96820.47;5044727;28;20368;-82
2022/07/17 05:19:49;;;;;;;7.43;6.63;;;;;;;18.09;98.07;96829.22;5051714;28;20198;-82
2022/07/17 05:22:18;;;;;;;7.63;6.93;;;;;;;17.96;98.43;96818.75;5049490;28;20274;-82
2022/07/17 05:24:45;;;;;;;8.10;7.27;;;;;;;17.94;99.29;96820.94;5044447;28;20206;-82
2022/07/17 05:27:12;;;;;;;7.40;6.70;;;;;;;18.00;98.48;96816.31;5049764;28;20371;-83
2022/07/17 05:29:39;;;;;;;7.37;6.10;;;;;;;17.95;97.61;96822.56;5047319;28;20312;-82
2022/07/17 05:32:06;;;;;;;6.70;5.80;;;;;;;17.82;97.29;96828.53;5049918;28;20206;-82
2022/07/17 05:34:33;;;;;;;6.63;6.00;;;;;;;17.74;98.16;96831.75;5047858;28;20233;-82
2022/07/17 05:37:01;;;;;;;7.87;7.07;;;;;;;17.77;98.83;96821.13;5049810;28;20258;-83
2022/07/17 05:39:29;;;;;;;8.07;7.37;;;;;;;17.83;99.93;96821.16;5046989;28;20202;-82
2022/07/17 05:41:56;;;;;;;8.47;7.27;;;;;;;17.72;99.64;96821.09;5046349;28;20206;-82
2022/07/17 05:44:23;;;;;;;6.90;6.30;;;;;;;17.68;99.80;96827.34;5039505;28;20198;-82
2022/07/17 05:46:50;;;;;;;7.90;7.10;;;;;;;17.65;100.00;96820.50;5062286;28;20225;-83
2022/07/17 05:49:17;;;;;;;8.33;7.40;;;;;;;17.70;100.00;96825.16;5050539;28;20206;-83
2022/07/17 05:51:44;;;;;;;8.77;7.80;;;;;;;17.70;100.00;96812.31;5048372;28;20206;-83
2022/07/17 05:54:11;;;;;;;8.00;7.13;;;;;;;17.71;100.00;96824.06;5075922;28;20218;-83
2022/07/17 05:56:40;;;;;;;6.90;6.27;;;;;;;17.62;99.66;96814.72;5048954;28;20228;-82
2022/07/17 05:59:07;;;;;;;11.43;6.70;;;;;;;17.64;100.00;96827.06;5050945;28;20226;-82
2022/07/17 06:01:34;;;;;;;7.00;6.30;;;;;;;17.56;100.00;96821.22;5047739;28;20199;-82
2022/07/17 06:04:01;;;;;;;7.90;6.50;;;;;;;17.54;100.00;96823.38;5049877;28;20272;-82
2022/07/17 06:06:28;;;;;;;6.40;5.80;;;;;;;17.45;100.00;96822.22;5046605;28;20233;-82
2022/07/17 06:08:55;;;;;;;6.53;5.93;;;;;;;17.34;100.00;96826.81;5047572;28;20206;-82
2022/07/17 06:11:22;;;;;;;7.63;6.10;;;;;;;17.33;100.00;96820.53;5032914;28;20221;-82
2022/07/17 06:13:50;;;;;;;6.90;6.23;;;;;;;17.39;100.00;96816.75;5036523;28;20226;-82
2022/07/17 06:16:17;;;;;;;6.83;6.10;;;;;;;17.51;100.00;96813.00;5044403;28;20206;-82
2022/07/17 06:18:44;;;;;;;8.50;6.60;;;;;;;17.56;100.00;96813.03;5048178;28;20210;-83
2022/07/17 06:21:11;;;;;;;8.70;6.23;;;;;;;17.62;100.00;96817.47;5048909;28;20301;-83
2022/07/17 06:23:39;;;;;;;7.13;6.27;;;;;;;17.66;100.00;96813.13;5047155;28;20299;-82
2022/07/17 06:26:06;;;;;;;9.73;6.90;;;;;;;17.63;100.00;96819.94;5068300;28;20238;-81
2022/07/17 06:28:33;;;;;;;9.40;6.40;;;;;;;17.66;100.00;96818.59;5044661;28;20252;-83
2022/07/17 06:31:01;;;;;;;9.30;6.53;;;;;;;17.60;100.00;96819.63;5043869;28;20242;-82
2022/07/17 06:33:29;;;;;;;6.43;5.80;;;;;;;17.51;100.00;96815.75;5040874;28;20218;-83
2022/07/17 06:35:56;;;;;;;7.23;6.53;;;;;;;17.58;100.00;96817.16;5043847;28;20198;-82
2022/07/17 06:38:23;;;;;;;6.77;6.10;;;;;;;17.64;100.00;96820.75;5038194;28;20198;-82
2022/07/17 06:40:50;;;;;;;7.13;5.83;;;;;;;17.68;100.00;96819.16;5068897;28;20217;-82
2022/07/17 06:43:17;;;;;;;6.33;5.70;;;;;;;17.82;100.00;96816.78;5042725;28;20268;-83
2022/07/17 06:45:44;;;;;;;7.43;5.50;;;;;;;17.93;100.00;96822.03;5046521;28;20218;-82
2022/07/17 06:48:13;;;;;;;6.47;5.87;;;;;;;18.04;100.00;96820.16;5047850;28;20221;-83
2022/07/17 06:50:40;;;;;;;9.00;6.03;;;;;;;18.11;100.00;96824.31;5048632;28;20260;-82
2022/07/17 06:53:07;;;;;;;6.27;5.60;;;;;;;18.20;100.00;96821.06;5073138;28;20209;-82
2022/07/17 06:55:34;;;;;;;6.90;6.20;;;;;;;18.32;100.00;96827.13;5046645;28;20209;-83
2022/07/17 06:58:01;;;;;;;7.07;5.87;;;;;;;18.36;100.00;96823.59;5048650;28;20301;-83
2022/07/17 07:00:28;;;;;;;7.13;5.63;;;;;;;18.39;100.00;96816.75;5046864;28;20210;-83
2022/07/17 07:02:55;;;;;;;6.80;5.30;;;;;;;18.36;100.00;96818.13;5038489;28;20290;-83
2022/07/17 07:05:24;;;;;;;8.37;5.40;;;;;;;18.41;100.00;96826.34;5078929;28;20209;-83
2022/07/17 07:07:51;;;;;;;6.67;6.03;;;;;;;18.22;100.00;96829.81;5061027;28;20248;-82
2022/07/17 07:10:18;;;;;;;6.33;5.80;;;;;;;18.07;100.00;96831.38;5046523;28;20202;-83
2022/07/17 07:12:46;;;;;;;6.43;5.50;;;;;;;18.07;100.00;96827.84;5046388;28;20297;-83
2022/07/17 07:15:14;;;;;;;5.67;5.03;;;;;;;18.18;100.00;96834.19;5046338;28;20276;-82
2022/07/17 07:17:41;;;;;;;7.67;5.60;;;;;;;18.26;100.00;96826.28;5059018;28;20200;-82
2022/07/17 07:20:10;;;;;;;6.23;5.63;;;;;;;18.56;100.00;96825.56;5049630;28;20194;-81
2022/07/17 07:22:38;;;;;;;5.50;5.00;;;;;;;18.99;100.00;96834.44;5046509;28;20286;-83
2022/07/17 07:25:06;;;;;;;5.97;5.37;;;;;;;19.52;99.92;96842.16;5046884;28;20206;-83
2022/07/17 07:27:33;;;;;;;5.80;5.20;;;;;;;20.07;94.73;96836.84;5045000;28;20226;-82
2022/07/17 07:30:01;;;;;;;5.78;5.15;;;;;;;20.28;92.51;96833.75;5045715;28;20238;-83
2022/07/17 07:32:28;;;;;;;5.35;4.90;;;;;;;20.55;89.34;96838.88;5047062;28;20205;-82
2022/07/17 07:34:55;;;;;;;5.60;5.10;;;;;;;20.85;88.26;96826.91;5046111;28;20202;-82
2022/07/17 07:37:22;;;;;;;7.25;5.43;;;;;;;21.18;83.31;96841.00;5047483;28;20232;-83
2022/07/17 07:39:51;;;;;;;5.20;4.80;;;;;;;21.73;82.38;96837.78;5046414;28;20210;-82
2022/07/17 07:42:18;;;;;;;6.32;5.25;;;;;;;22.15;76.63;96845.34;5046469;28;20295;-82
2022/07/17 07:44:45;;;;;;;6.82;5.70;;;;;;;22.46;73.67;96840.28;5063739;28;20195;-83
2022/07/17 07:47:13;;;;;;;7.18;4.80;;;;;;;22.73;75.38;96849.88;5048898;28;20297;-83
2022/07/17 07:49:40;;;;;;;6.05;5.43;;;;;;;22.85;70.39;96837.34;5045491;28;20206;-83
2022/07/17 07:52:07;;;;;;;6.20;5.63;;;;;;;23.01;70.94;96840.69;5044750;28;20215;-83
2022/07/17 07:54:35;;;;;;;7.22;5.47;;;;;;;22.96;70.52;96844.38;5043578;28;20234;-83
2022/07/17 07:57:05;;;;;;;7.03;5.22;;;;;;;23.08;69.31;96845.84;5039846;28;20293;-83
2022/07/17 07:59:33;;;;;;;6.25;5.10;;;;;;;23.27;69.04;96852.16;5046257;28;20190;-83
2022/07/17 08:02:00;;;;;;;7.07;4.72;;;;;;;23.35;69.80;96846.78;5044318;28;20204;-82
2022/07/17 08:04:27;;;;;;;6.53;5.45;;;;;;;23.32;70.24;96843.81;5045133;28;20205;-83
2022/07/17 08:06:55;;;;;;;7.50;5.38;;;;;;;23.32;69.29;96847.38;5042319;28;20223;-82
2022/07/17 08:09:23;;;;;;;9.45;5.03;;;;;;;23.34;71.45;96855.34;5046697;28;20296;-83
2022/07/17 08:11:50;;;;;;;8.73;5.45;;;;;;;23.21;67.25;96850.59;5045075;28;20210;-82
2022/07/17 08:14:19;;;;;;;6.05;5.22;;;;;;;23.43;68.32;96852.72;5068160;28;20212;-81
2022/07/17 08:16:46;;;;;;;7.63;5.05;;;;;;;23.81;67.53;96856.28;5038379;28;20215;-82
2022/07/17 08:19:13;;;;;;;7.88;4.75;;;;;;;24.08;64.67;96848.84;5042799;28;20206;-82
2022/07/17 08:21:41;;;;;;;6.07;4.70;;;;;;;24.20;64.08;96847.53;5046111;28;20198;-83
2022/07/17 08:24:08;;;;;;;4.90;4.50;;;;;;;24.18;64.07;96836.81;5044344;28;20213;-84
2022/07/17 08:26:35;;;;;;;6.30;4.68;;;;;;;24.42;63.82;96850.44;5041741;28;20217;-83
2022/07/17 08:29:02;;;;;;;5.68;4.88;;;;;;;24.46;63.10;96857.00;5059205;28;20229;-83
2022/07/17 08:31:31;;;;;;;4.95;4.50;;;;;;;24.43;62.64;96850.13;5049842;28;20263;-84
2022/07/17 08:33:58;;;;;;;6.20;4.45;;;;;;;24.58;63.43;96854.56;5045897;28;20198;-84
2022/07/17 08:36:25;;;;;;;6.70;4.65;;;;;;;24.61;63.85;96847.56;5043440;28;20198;-84
2022/07/17 08:38:52;;;;;;;5.90;4.25;;;;;;;24.51;62.74;96851.34;5052660;28;20829;-83
2022/07/17 08:41:22;;;;;;;4.63;4.22;;;;;;;24.25;64.39;96850.22;5044993;28;20236;-83
2022/07/17 08:43:50;;;;;;;4.72;4.30;;;;;;;24.48;64.61;96860.28;5046082;28;20264;-83
2022/07/17 08:46:19;;;;;;;6.22;4.65;;;;;;;24.58;62.29;96862.00;5039561;28;20222;-84
2022/07/17 08:48:48;;;;;;;5.05;4.32;;;;;;;24.67;64.51;96858.19;5035922;28;20198;-84
2022/07/17 08:51:18;;;;;;;4.63;4.22;;;;;;;24.80;62.07;96857.38;5045749;28;20202;-83
2022/07/17 08:53:45;;;;;;;4.60;4.20;;;;;;;24.71;60.98;96858.41;5059887;28;20194;-83
2022/07/17 08:56:12;;;;;;;6.57;4.53;;;;;;;24.76;62.55;96866.56;5043506;28;20231;-84
2022/07/17 08:58:39;;;;;;;4.97;4.47;;;;;;;24.94;60.25;96853.78;5076194;28;20213;-83
2022/07/17 09:01:07;;;;;;;6.40;4.40;;;;;;;25.07;59.92;96861.25;5050621;28;20209;-83
2022/07/17 09:03:34;;;;;;;5.30;4.80;;;;;;;25.10;58.69;96861.44;5044622;28;20206;-83
2022/07/17 09:06:03;;;;;;;5.53;4.72;;;;;;;25.33;59.10;96859.53;5047014;28;20198;-84
2022/07/17 09:08:33;;;;;;;5.13;4.32;;;;;;;25.22;59.36;96849.84;5044097;28;20198;-83
2022/07/17 09:11:00;;;;;;;9.10;4.72;;;;;;;25.33;57.32;96858.72;5051616;28;20211;-83
2022/07/17 09:13:29;;;;;;;4.82;4.38;;;;;;;25.38;55.85;96853.88;5038409;28;20209;-83
2022/07/17 09:15:59;;;;;;;4.78;4.30;;;;;;;25.42;56.38;96854.91;5044074;28;20268;-83
2022/07/17 09:18:27;;;;;;;5.32;4.22;;;;;;;25.42;57.40;96849.38;5063498;28;20206;-83
2022/07/17 09:20:56;;;;;;;5.18;4.45;;;;;;;25.54;57.38;96852.38;5045840;28;20226;-83
2022/07/17 09:23:26;;;;;;;5.32;4.80;;;;;;;25.66;56.29;96853.81;5040340;28;20197;-83
2022/07/17 09:25:55;;;;;;;5.75;4.60;;;;;;;25.72;58.01;96855.31;5076894;28;20211;-83
2022/07/17 09:28:23;;;;;;;5.25;4.75;;;;;;;25.80;57.33;96847.06;5042319;28;20226;-83
2022/07/17 09:30:52;;;;;;;6.18;4.70;;;;;;;25.87;58.09;96844.66;5043995;28;20218;-83
2022/07/17 09:33:21;;;;;;;5.45;4.60;;;;;;;26.08;56.71;96853.25;5033708;28;20198;-83
2022/07/17 09:35:51;;;;;;;4.97;4.47;;;;;;;26.05;56.78;96845.56;5033622;28;21195;-83
2022/07/17 09:38:33;;;;;;;4.40;4.00;;;;;;;26.17;55.81;96853.28;5042759;28;20326;-83
2022/07/17 09:41:16;;;;;;;5.97;4.57;;;;;;;26.25;56.35;96850.56;5046065;28;20264;-82
2022/07/17 09:43:49;;;;;;;6.13;4.20;;;;;;;26.28;56.54;96852.75;5044624;28;20239;-84
2022/07/17 09:46:20;;;;;;;7.03;4.65;;;;;;;26.34;56.67;96853.41;5050979;28;20214;-83
2022/07/17 09:48:49;;;;;;;4.68;4.28;;;;;;;26.18;55.70;96850.22;5050468;28;20198;-82
2022/07/17 09:51:19;;;;;;;5.03;4.35;;;;;;;26.20;56.49;96859.00;5036070;28;20202;-83
2022/07/17 09:53:49;;;;;;;5.65;3.97;;;;;;;26.29;55.15;96851.59;5035894;28;20261;-83
2022/07/17 09:56:18;;;;;;;5.38;4.32;;;;;;;26.28;56.01;96865.78;5039078;28;20234;-82
2022/07/17 09:58:49;;;;;;;4.63;4.00;;;;;;;26.41;54.59;96845.44;5048371;28;20268;-83
2022/07/17 10:01:17;;;;;;;4.55;4.15;;;;;;;26.31;54.55;96849.31;5050501;28;20214;-83
2022/07/17 10:03:45;;;;;;;4.93;4.38;;;;;;;26.30;54.17;96844.91;5049813;28;20244;-83
2022/07/17 10:06:12;;;;;;;5.75;4.18;;;;;;;26.15;54.44;96850.84;5051830;28;20217;-83
2022/07/17 10:08:40;;;;;;;4.32;3.88;;;;;;;26.07;55.27;96851.63;5051917;28;20205;-83
2022/07/17 10:11:09;;;;;;;4.75;4.35;;;;;;;26.18;55.35;96850.22;5050799;28;20212;-83
2022/07/17 10:13:38;;;;;;;5.03;4.40;;;;;;;26.36;54.47;96849.19;5045386;28;20195;-83
2022/07/17 10:16:05;;;;;;;6.85;4.28;;;;;;;26.50;52.72;96853.78;5050953;28;20237;-82
2022/07/17 10:18:39;;;;;;;4.35;3.95;;;;;;;26.58;53.29;96847.47;5050814;28;20256;-83
2022/07/17 10:21:15;;;;;;;5.70;4.35;;;;;;;26.84;52.72;96842.81;5050786;28;20202;-83
2022/07/17 10:23:43;;;;;;;4.82;4.32;;;;;;;26.89;52.27;96837.09;5050471;28;20206;-83
2022/07/17 10:26:12;;;;;;;5.40;4.10;;;;;;;27.06;53.38;96837.16;5050796;28;20216;-83
2022/07/17 10:28:41;;;;;;;6.50;4.43;;;;;;;27.17;51.52;96843.22;5050844;28;20248;-83
2022/07/17 10:31:09;;;;;;;4.68;4.15;;;;;;;27.30;52.73;96836.72;5050851;28;20206;-83
2022/07/17 10:33:37;;;;;;;6.25;4.10;;;;;;;27.40;49.13;96838.31;5050592;28;20204;-83
2022/07/17 10:36:05;;;;;;;4.55;4.10;;;;;;;27.42;49.10;96831.31;5032867;28;20222;-83
2022/07/17 10:38:43;;;;;;;5.00;4.45;;;;;;;27.33;49.53;96829.69;5044094;28;20203;-82
2022/07/17 10:41:20;;;;;;;4.40;4.00;;;;;;;27.31;50.63;96838.31;5046548;28;20297;-83
2022/07/17 10:43:51;;;;;;;4.78;3.83;;;;;;;27.52;49.37;96832.94;5075248;28;20206;-83
2022/07/17 10:46:19;;;;;;;4.15;3.85;;;;;;;27.53;48.57;96837.34;5049077;28;20221;-83
2022/07/17 10:48:49;;;;;;;4.88;3.92;;;;;;;27.48;47.76;96845.81;5050475;28;20202;-83
2022/07/17 10:51:17;;;;;;;5.35;4.30;;;;;;;27.55;48.75;96842.63;5043676;28;20195;-83
2022/07/17 10:53:44;;;;;;;4.18;3.78;;;;;;;27.83;48.88;96841.91;5039805;28;20213;-83
2022/07/17 10:56:13;;;;;;;5.38;3.75;;;;;;;27.96;48.90;96837.31;5045431;28;20230;-83
2022/07/17 10:58:41;;;;;;;4.22;3.83;;;;;;;27.79;48.56;96837.34;5039778;28;20257;-83
2022/07/17 11:01:12;;;;;;;5.00;3.95;;;;;;;27.71;48.42;96836.22;5046471;28;20233;-83
2022/07/17 11:03:41;;;;;;;4.30;3.92;;;;;;;27.68;48.01;96836.06;5049850;28;20206;-83
2022/07/17 11:06:11;;;;;;;4.68;3.90;;;;;;;27.66;48.80;96833.59;5041787;28;20257;-83
2022/07/17 11:08:46;;;;;;;4.40;3.97;;;;;;;27.72;48.78;96839.81;5049246;28;20222;-82
2022/07/17 11:11:14;;;;;;;5.82;3.90;;;;;;;27.91;47.62;96839.44;5082876;28;20232;-83
2022/07/17 11:13:41;;;;;;;5.40;4.00;;;;;;;28.06;47.11;96842.53;5048522;28;20206;-83
2022/07/17 11:16:09;;;;;;;6.15;4.13;;;;;;;28.16;47.11;96836.63;5047435;28;20210;-82
2022/07/17 11:18:37;;;;;;;4.05;3.65;;;;;;;28.29;47.99;96839.53;5036889;28;20221;-83
2022/07/17 11:21:05;;;;;;;5.05;3.78;;;;;;;28.42;46.26;96844.84;5049432;28;20210;-82
2022/07/17 11:23:34;;;;;;;5.40;4.10;;;;;;;28.28;46.45;96832.34;5047957;28;20209;-83
2022/07/17 11:26:03;;;;;;;3.75;3.38;;;;;;;28.32;47.05;96839.69;5047312;28;20257;-83
2022/07/17 11:28:35;;;;;;;4.07;3.78;;;;;;;28.67;45.46;96839.53;5040475;28;20294;-83
2022/07/17 11:31:04;;;;;;;5.15;4.28;;;;;;;28.86;44.41;96843.53;5030856;28;20214;-83
2022/07/17 11:33:31;;;;;;;6.25;4.18;;;;;;;28.60;44.51;96832.53;5040368;28;20255;-83
2022/07/17 11:35:59;;;;;;;5.07;4.18;;;;;;;28.75;44.62;96833.91;5046527;28;20199;-82